createdAt,value
2019-04-26T00:01:18.309Z,11.50
2019-04-26T00:06:23.054Z,11.40
2019-04-26T00:11:48.410Z,11.40
2019-04-26T00:17:05.916Z,11.30
2019-04-26T00:22:10.699Z,11.10
2019-04-26T00:27:16.751Z,10.90
2019-04-26T00:32:21.527Z,10.80
2019-04-26T00:37:25.829Z,10.70
2019-04-26T00:42:31.818Z,10.50
2019-04-26T00:47:36.790Z,10.40
2019-04-26T00:52:42.471Z,10.10
2019-04-26T00:57:46.956Z,9.90
2019-04-26T01:02:54.200Z,9.70
2019-04-26T01:07:58.419Z,9.50
2019-04-26T01:13:02.805Z,9.40
2019-04-26T01:18:07.145Z,9.40
2019-04-26T01:23:13.037Z,9.30
2019-04-26T01:28:25.669Z,9.20
2019-04-26T01:33:31.981Z,9.10
2019-04-26T01:38:36.038Z,9.00
2019-04-26T01:43:49.075Z,8.90
2019-04-26T01:49:03.914Z,8.80
2019-04-26T01:54:10.900Z,8.80
2019-04-26T01:59:17.195Z,8.70
2019-04-26T02:04:23.924Z,8.60
2019-04-26T02:09:28.437Z,8.50
2019-04-26T02:14:33.331Z,8.40
2019-04-26T02:19:37.960Z,8.30
2019-04-26T02:24:45.127Z,8.30
2019-04-26T02:29:49.049Z,8.30
2019-04-26T02:34:53.550Z,8.40
2019-04-26T02:39:58.390Z,8.50
2019-04-26T02:45:29.999Z,8.50
2019-04-26T02:50:44.995Z,8.60
2019-04-26T02:56:31.631Z,8.70
2019-04-26T03:01:37.835Z,8.80
2019-04-26T03:07:01.825Z,9.00
2019-04-26T03:11:54.487Z,9.10
2019-04-26T03:17:24.002Z,9.10
2019-04-26T03:23:01.320Z,9.20
2019-04-26T03:28:36.758Z,9.20
2019-04-26T03:33:54.240Z,9.10
2019-04-26T03:39:15.908Z,9.20
2019-04-26T03:44:30.068Z,9.20
2019-04-26T03:50:07.982Z,9.30
2019-04-26T03:55:50.167Z,9.40
2019-04-26T04:01:00.000Z,9.40
2019-04-26T04:06:07.062Z,9.50
2019-04-26T04:11:14.531Z,9.50
2019-04-26T04:16:42.473Z,9.50
2019-04-26T04:21:56.539Z,9.60
2019-04-26T04:27:23.663Z,9.80
2019-04-26T04:32:47.567Z,9.90
2019-04-26T04:38:08.361Z,10.20
2019-04-26T04:43:33.436Z,10.50
2019-04-26T04:49:21.213Z,10.60
2019-04-26T04:54:37.604Z,10.50
2019-04-26T05:00:01.057Z,10.50
2019-04-26T05:05:34.356Z,10.50
2019-04-26T05:10:51.993Z,10.50
2019-04-26T05:16:25.952Z,10.50
2019-04-26T05:21:55.093Z,10.60
2019-04-26T05:27:44.193Z,10.60
2019-04-26T05:33:00.232Z,10.70
2019-04-26T05:38:18.581Z,10.90
2019-04-26T05:43:49.179Z,11.00
2019-04-26T05:49:35.956Z,11.10
2019-04-26T05:55:07.669Z,11.20
2019-04-26T06:00:36.926Z,11.30
2019-04-26T06:06:23.052Z,11.40
2019-04-26T06:11:36.281Z,11.50
2019-04-26T06:17:21.677Z,11.50
2019-04-26T06:22:57.456Z,11.50
2019-04-26T06:28:24.245Z,11.60
2019-04-26T06:33:35.765Z,11.60
2019-04-26T06:39:05.572Z,11.70
2019-04-26T06:44:14.974Z,11.70
2019-04-26T06:50:15.051Z,11.70
2019-04-26T06:55:39.920Z,11.80
2019-04-26T07:01:08.265Z,12.00
2019-04-26T07:06:15.248Z,12.10
2019-04-26T07:12:21.803Z,12.10
2019-04-26T07:18:05.048Z,12.20
2019-04-26T07:24:16.529Z,12.20
2019-04-26T07:29:57.161Z,12.20
2019-04-26T07:35:16.539Z,12.30
2019-04-26T07:41:07.978Z,12.30
2019-04-26T07:46:52.363Z,12.10
2019-04-26T07:52:48.392Z,12.00
2019-04-26T07:58:45.066Z,11.80
2019-04-26T08:03:59.533Z,11.60
2019-04-26T08:09:10.864Z,11.50
2019-04-26T08:14:23.403Z,11.40
2019-04-26T08:19:30.551Z,11.40
2019-04-26T08:24:37.574Z,11.50
2019-04-26T08:29:45.086Z,11.50
2019-04-26T08:34:57.939Z,11.50
2019-04-26T08:40:07.765Z,11.50
2019-04-26T08:45:28.708Z,11.50
2019-04-26T08:50:53.072Z,11.50
2019-04-26T08:55:58.004Z,11.50
2019-04-26T09:01:22.887Z,11.50
2019-04-26T09:06:36.038Z,11.50
2019-04-26T09:11:41.332Z,11.50
2019-04-26T09:16:50.367Z,11.60
2019-04-26T09:22:13.868Z,11.70
2019-04-26T09:27:36.455Z,11.80
2019-04-26T09:32:54.012Z,12.00
2019-04-26T09:37:58.449Z,12.20
2019-04-26T09:43:15.240Z,12.40
2019-04-26T09:48:26.600Z,12.60
2019-04-26T09:53:31.626Z,12.70
2019-04-26T09:58:37.210Z,12.80
2019-04-26T10:03:42.146Z,12.90
2019-04-26T10:08:47.090Z,13.10
2019-04-26T10:14:01.615Z,13.20
2019-04-26T10:19:10.508Z,13.30
2019-04-26T10:24:14.904Z,13.40
2019-04-26T10:29:21.651Z,13.80
2019-04-26T10:34:25.174Z,14.20
2019-04-26T10:39:32.505Z,14.40
2019-04-26T10:44:39.886Z,14.40
2019-04-26T10:49:44.313Z,14.30
2019-04-26T10:54:52.871Z,14.20
2019-04-26T10:59:58.871Z,14.30
2019-04-26T11:05:03.337Z,14.60
2019-04-26T11:10:07.977Z,14.60
2019-04-26T11:15:12.168Z,14.40
2019-04-26T11:20:16.387Z,14.10
2019-04-26T11:25:24.725Z,14.00
2019-04-26T11:30:27.395Z,13.90
2019-04-26T11:35:33.267Z,13.90
2019-04-26T11:40:44.474Z,13.80
2019-04-26T11:46:03.792Z,13.90
2019-04-26T11:51:00.297Z,14.00
2019-04-26T11:56:07.465Z,14.20
2019-04-26T12:01:13.159Z,14.40
2019-04-26T12:06:44.822Z,14.70
2019-04-26T12:12:03.697Z,14.80
2019-04-26T12:16:59.739Z,14.90
2019-04-26T12:22:04.313Z,14.80
2019-04-26T12:27:11.097Z,14.60
2019-04-26T12:32:17.224Z,14.50
2019-04-26T12:37:21.249Z,14.60
2019-04-26T12:42:26.474Z,14.70
2019-04-26T12:48:03.994Z,14.70
2019-04-26T12:53:08.040Z,14.80
2019-04-26T12:58:15.199Z,14.90
2019-04-26T13:03:37.378Z,15.00
2019-04-26T13:08:47.227Z,14.90
2019-04-26T13:14:01.352Z,14.60
2019-04-26T13:19:09.065Z,14.30
2019-04-26T13:24:15.361Z,14.20
2019-04-26T13:29:22.983Z,14.10
2019-04-26T13:34:27.091Z,14.10
2019-04-26T13:39:31.147Z,14.10
2019-04-26T13:44:55.447Z,14.10
2019-04-26T13:50:11.106Z,14.10
2019-04-26T13:55:15.563Z,14.00
2019-04-26T14:00:26.097Z,13.90
2019-04-26T14:05:30.527Z,13.90
2019-04-26T14:10:34.596Z,13.80
2019-04-26T14:15:39.460Z,13.80
2019-04-26T14:20:44.753Z,13.80
2019-04-26T14:26:10.102Z,13.80
2019-04-26T14:31:16.456Z,13.80
2019-04-26T14:36:22.718Z,13.90
2019-04-26T14:41:26.074Z,13.90
2019-04-26T14:46:30.438Z,13.90
2019-04-26T14:51:34.481Z,13.90
2019-04-26T14:56:51.528Z,13.90
2019-04-26T15:02:15.655Z,14.00
2019-04-26T15:07:19.915Z,14.10
2019-04-26T15:12:24.568Z,14.20
2019-04-26T15:17:28.293Z,14.30
2019-04-26T15:22:32.985Z,14.40
2019-04-26T15:27:37.381Z,14.40
2019-04-26T15:32:42.647Z,14.40
2019-04-26T15:37:46.873Z,14.30
2019-04-26T15:43:02.976Z,14.30
2019-04-26T15:48:16.115Z,14.30
2019-04-26T15:53:22.107Z,14.20
2019-04-26T15:58:26.997Z,14.20
2019-04-26T16:03:32.598Z,14.40
2019-04-26T16:08:42.585Z,14.50
2019-04-26T16:13:45.125Z,14.80
2019-04-26T16:18:53.380Z,15.10
2019-04-26T16:23:55.287Z,15.40
2019-04-26T16:29:19.751Z,15.50
2019-04-26T16:34:23.517Z,15.50
2019-04-26T16:39:32.353Z,15.30
2019-04-26T16:44:33.660Z,15.20
2019-04-26T16:49:41.946Z,15.00
2019-04-26T16:54:45.862Z,14.80
2019-04-26T17:00:35.776Z,14.50
2019-04-26T17:04:55.614Z,14.30
2019-04-26T17:10:00.009Z,14.10
2019-04-26T17:15:03.522Z,14.00
2019-04-26T17:20:10.922Z,13.80
2019-04-26T17:25:37.293Z,13.60
2019-04-26T17:30:44.442Z,13.50
2019-04-26T17:35:47.271Z,13.30
2019-04-26T17:40:51.466Z,13.10
2019-04-26T17:45:55.584Z,12.90
2019-04-26T17:50:59.588Z,12.80
2019-04-26T17:56:06.353Z,12.60
2019-04-26T18:01:10.134Z,12.50
2019-04-26T18:06:15.513Z,12.30
2019-04-26T18:11:24.757Z,12.20
2019-04-26T18:16:29.420Z,12.00
2019-04-26T18:22:03.876Z,11.80
2019-04-26T18:27:09.814Z,11.70
2019-04-26T18:32:14.254Z,11.50
2019-04-26T18:37:18.817Z,11.40
2019-04-26T18:42:22.815Z,11.40
2019-04-26T18:47:32.228Z,11.30
2019-04-26T18:52:38.457Z,11.20
2019-04-26T18:57:43.036Z,11.00
2019-04-26T19:02:48.403Z,10.90
2019-04-26T19:07:53.121Z,10.80
2019-04-26T19:13:00.158Z,10.70
2019-04-26T19:18:33.982Z,10.60
2019-04-26T19:23:37.910Z,10.50
2019-04-26T19:28:44.391Z,10.50
2019-04-26T19:33:51.518Z,10.40
2019-04-26T19:38:53.569Z,10.40
2019-04-26T19:43:59.115Z,10.40
2019-04-26T19:49:25.863Z,10.40
2019-04-26T19:54:38.294Z,10.40
2019-04-26T19:59:39.935Z,10.40
2019-04-26T20:04:44.035Z,10.40
2019-04-26T20:09:48.142Z,10.40
2019-04-26T20:14:56.775Z,10.30
2019-04-26T20:19:59.440Z,10.30
2019-04-26T20:25:03.494Z,10.20
2019-04-26T20:30:12.598Z,10.20
2019-04-26T20:35:26.524Z,10.20
2019-04-26T20:40:27.631Z,10.20
2019-04-26T20:45:41.125Z,10.10
2019-04-26T20:50:37.834Z,10.10
2019-04-26T20:55:42.748Z,10.10
2019-04-26T21:00:54.224Z,10.00
2019-04-26T21:05:58.788Z,9.90
2019-04-26T21:11:00.190Z,9.80
2019-04-26T21:16:10.627Z,9.60
2019-04-26T21:21:11.868Z,9.40
2019-04-26T21:26:35.590Z,9.30
2019-04-26T21:31:59.384Z,9.20
2019-04-26T21:37:22.141Z,9.10
2019-04-26T21:42:27.323Z,9.10
2019-04-26T21:47:32.931Z,9.00
2019-04-26T21:52:38.255Z,9.00
2019-04-26T21:57:43.902Z,9.00
2019-04-26T22:02:48.213Z,8.90
2019-04-26T22:07:53.487Z,8.80
2019-04-26T22:13:01.474Z,8.80
2019-04-26T22:18:10.309Z,8.70
2019-04-26T22:23:33.798Z,8.60
2019-04-26T22:28:37.840Z,8.50
2019-04-26T22:33:42.874Z,8.40
2019-04-26T22:38:47.797Z,8.20
2019-04-26T22:44:00.120Z,8.10
2019-04-26T22:49:05.720Z,8.00
2019-04-26T22:54:10.097Z,7.80
2019-04-26T22:59:14.049Z,7.80
2019-04-26T23:04:24.982Z,7.70
2019-04-26T23:09:24.439Z,7.60
2019-04-26T23:14:57.668Z,7.60
2019-04-26T23:20:19.369Z,7.50
2019-04-26T23:25:23.879Z,7.30
2019-04-26T23:30:27.670Z,7.20
